Kaley — V7LL2 — position and weather

sailwx.info

Track history (hours):
 
Tides and Currents Weather Stations Pressure Air Temp Water Temp Dewpoint Dewpoint Depression Visibility Wind Speed Wind Dir Waves Ship Positions

Kaley

Last reported at 2018-May-26 03:51 UTC. Time now 2018-Jun-18 19:35 UTC.
Position S 28°54' E 032°08'.
Warning: this ship's position is 23 days out of date.

Length 199 m; draft 10.7 m.

Type: Cargo ship. MMSI: 538006289.

Date/timePositionNaut miles runAvg speedWind from/ knotsBaromVisibWave heightAir tempDewpointWater temp
2018-May-26 03:51S 28°54' E 032°08'1 0.7
2018-May-26 02:12S 28°55' E 032°09'3 7.7
2018-May-26 01:48S 28°58' E 032°09'3 9.7
2018-May-26 01:29S 29°01' E 032°09'9 8.8
2018-May-26 00:26S 29°09' E 032°04'5 9.1
2018-May-25 23:55S 29°13' E 032°01'4 9.7
2018-May-25 23:30S 29°16' E 031°58'5 9.2
2018-May-25 23:00S 29°20' E 031°55'4 8.8
2018-May-25 22:30S 29°23' E 031°52'5 9.6
2018-May-25 22:00S 29°27' E 031°49'510.7
2018-May-25 21:30S 29°32' E 031°45'611.3
2018-May-25 21:00S 29°36' E 031°42'611.6
2018-May-25 20:30S 29°41' E 031°38'511.0
2018-May-25 20:00S 29°46' E 031°35'611.8
2018-May-25 19:29S 29°50' E 031°30'612.2
2018-May-25 19:00S 29°55' E 031°26'611.9
2018-May-25 18:30S 29°60' E 031°22'611.4
2018-May-25 18:00S 30°04' E 031°18'611.3
2018-May-25 17:30S 30°09' E 031°15'612.1
2018-May-25 17:00S 30°14' E 031°11'612.2
2018-May-25 16:30S 30°19' E 031°07'  
2018-May-16 09:33S 30°19' E 031°13'310.9
2018-May-16 09:18S 30°17' E 031°15'311.2
2018-May-16 09:00S 30°14' E 031°16'611.1
2018-May-16 08:30S 30°09' E 031°19'510.8
2018-May-16 08:00S 30°04' E 031°21'510.3
2018-May-16 07:30S 29°59' E 031°24'5 9.5
2018-May-16 07:00S 29°55' E 031°26'5 9.2
2018-May-16 06:30S 29°50' E 031°27'5 9.7
2018-May-16 06:00S 29°48' E 031°32'610.3
2018-May-16 05:28S 29°47' E 031°39'511.2
2018-May-16 05:00S 29°45' E 031°44'611.3
2018-May-16 04:30S 29°43' E 031°50'  
Track history (hours):
 
Tides and Currents Weather Stations Pressure Air Temp Water Temp Dewpoint Dewpoint Depression Visibility Wind Speed Wind Dir Waves Ship Positions

Kaley

Last reported at 2018-May-26 03:51 UTC. Time now 2018-Jun-18 19:35 UTC.
Position S 28°54' E 032°08'.
Warning: this ship's position is 23 days out of date.

Length 199 m; draft 10.7 m.

Type: Cargo ship. MMSI: 538006289.

Date/timePositionNaut miles runAvg speedWind from/ knotsBaromVisibWave heightAir tempDewpointWater temp
2018-May-26 03:51S 28°54' E 032°08'1 0.7
2018-May-26 02:12S 28°55' E 032°09'3 7.7
2018-May-26 01:48S 28°58' E 032°09'3 9.7
2018-May-26 01:29S 29°01' E 032°09'9 8.8
2018-May-26 00:26S 29°09' E 032°04'5 9.1
2018-May-25 23:55S 29°13' E 032°01'4 9.7
2018-May-25 23:30S 29°16' E 031°58'5 9.2
2018-May-25 23:00S 29°20' E 031°55'4 8.8
2018-May-25 22:30S 29°23' E 031°52'5 9.6
2018-May-25 22:00S 29°27' E 031°49'510.7
2018-May-25 21:30S 29°32' E 031°45'611.3
2018-May-25 21:00S 29°36' E 031°42'611.6
2018-May-25 20:30S 29°41' E 031°38'511.0
2018-May-25 20:00S 29°46' E 031°35'611.8
2018-May-25 19:29S 29°50' E 031°30'612.2
2018-May-25 19:00S 29°55' E 031°26'611.9
2018-May-25 18:30S 29°60' E 031°22'611.4
2018-May-25 18:00S 30°04' E 031°18'611.3
2018-May-25 17:30S 30°09' E 031°15'612.1
2018-May-25 17:00S 30°14' E 031°11'612.2
2018-May-25 16:30S 30°19' E 031°07'  
2018-May-16 09:33S 30°19' E 031°13'310.9
2018-May-16 09:18S 30°17' E 031°15'311.2
2018-May-16 09:00S 30°14' E 031°16'611.1
2018-May-16 08:30S 30°09' E 031°19'510.8
2018-May-16 08:00S 30°04' E 031°21'510.3
2018-May-16 07:30S 29°59' E 031°24'5 9.5
2018-May-16 07:00S 29°55' E 031°26'5 9.2
2018-May-16 06:30S 29°50' E 031°27'5 9.7
2018-May-16 06:00S 29°48' E 031°32'610.3
2018-May-16 05:28S 29°47' E 031°39'511.2
2018-May-16 05:00S 29°45' E 031°44'611.3
2018-May-16 04:30S 29°43' E 031°50'  

Dump ship's entire track history